sensor_id;sensor_type;location;lat;lon;timestamp;P1;durP1;ratioP1;P2;durP2;ratioP2
29414;SDS011;20303;48.302;11.914;2023-08-21T00:05:28;15.68;;;11.85;;
29414;SDS011;20303;48.302;11.914;2023-08-21T00:15:29;19.23;;;12.70;;
29414;SDS011;20303;48.302;11.914;2023-08-21T00:25:30;15.23;;;13.07;;
29414;SDS011;20303;48.302;11.914;2023-08-21T00:35:31;17.13;;;12.45;;
29414;SDS011;20303;48.302;11.914;2023-08-21T00:45:32;29.70;;;11.40;;
29414;SDS011;20303;48.302;11.914;2023-08-21T00:55:33;34.92;;;11.35;;
29414;SDS011;20303;48.302;11.914;2023-08-21T01:05:34;20.58;;;10.55;;
29414;SDS011;20303;48.302;11.914;2023-08-21T01:15:36;18.27;;;10.40;;
29414;SDS011;20303;48.302;11.914;2023-08-21T01:25:38;13.57;;;9.88;;
29414;SDS011;20303;48.302;11.914;2023-08-21T01:35:39;14.25;;;10.52;;
29414;SDS011;20303;48.302;11.914;2023-08-21T01:45:40;10.93;;;9.82;;
29414;SDS011;20303;48.302;11.914;2023-08-21T01:55:41;11.23;;;9.90;;
29414;SDS011;20303;48.302;11.914;2023-08-21T02:05:42;11.80;;;9.60;;
29414;SDS011;20303;48.302;11.914;2023-08-21T02:15:43;10.88;;;9.27;;
29414;SDS011;20303;48.302;11.914;2023-08-21T02:25:44;10.55;;;9.43;;
29414;SDS011;20303;48.302;11.914;2023-08-21T02:35:45;10.57;;;9.40;;
29414;SDS011;20303;48.302;11.914;2023-08-21T02:45:46;10.10;;;9.10;;
29414;SDS011;20303;48.302;11.914;2023-08-21T02:55:47;9.75;;;8.85;;
29414;SDS011;20303;48.302;11.914;2023-08-21T03:05:48;9.95;;;9.05;;
29414;SDS011;20303;48.302;11.914;2023-08-21T03:15:49;9.88;;;8.60;;
29414;SDS011;20303;48.302;11.914;2023-08-21T03:25:53;10.00;;;9.10;;
29414;SDS011;20303;48.302;11.914;2023-08-21T03:35:54;9.35;;;8.55;;
29414;SDS011;20303;48.302;11.914;2023-08-21T03:45:55;9.70;;;8.80;;
29414;SDS011;20303;48.302;11.914;2023-08-21T03:55:56;9.75;;;8.95;;
29414;SDS011;20303;48.302;11.914;2023-08-21T04:05:57;10.02;;;9.07;;
29414;SDS011;20303;48.302;11.914;2023-08-21T04:15:59;9.43;;;8.55;;
29414;SDS011;20303;48.302;11.914;2023-08-21T04:26:00;9.07;;;8.27;;
29414;SDS011;20303;48.302;11.914;2023-08-21T04:36:02;9.07;;;8.27;;
29414;SDS011;20303;48.302;11.914;2023-08-21T04:46:04;9.40;;;8.50;;
29414;SDS011;20303;48.302;11.914;2023-08-21T04:56:05;9.30;;;8.50;;
29414;SDS011;20303;48.302;11.914;2023-08-21T05:06:06;9.25;;;8.35;;
29414;SDS011;20303;48.302;11.914;2023-08-21T05:16:07;9.23;;;8.43;;
29414;SDS011;20303;48.302;11.914;2023-08-21T05:26:08;8.40;;;7.68;;
29414;SDS011;20303;48.302;11.914;2023-08-21T05:36:09;9.20;;;8.40;;
29414;SDS011;20303;48.302;11.914;2023-08-21T05:46:11;8.85;;;8.05;;
29414;SDS011;20303;48.302;11.914;2023-08-21T05:56:12;8.77;;;8.07;;
29414;SDS011;20303;48.302;11.914;2023-08-21T06:06:13;9.30;;;8.40;;
29414;SDS011;20303;48.302;11.914;2023-08-21T06:16:14;8.95;;;8.15;;
29414;SDS011;20303;48.302;11.914;2023-08-21T06:26:16;8.70;;;7.90;;
29414;SDS011;20303;48.302;11.914;2023-08-21T06:36:17;8.35;;;7.65;;
29414;SDS011;20303;48.302;11.914;2023-08-21T06:46:18;8.48;;;7.78;;
29414;SDS011;20303;48.302;11.914;2023-08-21T06:56:19;9.00;;;8.20;;
29414;SDS011;20303;48.302;11.914;2023-08-21T07:06:20;8.10;;;7.40;;
29414;SDS011;20303;48.302;11.914;2023-08-21T07:16:21;8.13;;;7.43;;
29414;SDS011;20303;48.302;11.914;2023-08-21T07:26:22;8.13;;;7.43;;
29414;SDS011;20303;48.302;11.914;2023-08-21T07:36:23;7.90;;;7.20;;
29414;SDS011;20303;48.302;11.914;2023-08-21T07:46:25;7.75;;;7.05;;
29414;SDS011;20303;48.302;11.914;2023-08-21T07:56:26;8.00;;;7.30;;
29414;SDS011;20303;48.302;11.914;2023-08-21T08:06:27;7.85;;;7.15;;
29414;SDS011;20303;48.302;11.914;2023-08-21T08:16:28;8.00;;;7.30;;
29414;SDS011;20303;48.302;11.914;2023-08-21T08:26:29;7.20;;;6.50;;
29414;SDS011;20303;48.302;11.914;2023-08-21T08:36:30;7.15;;;6.55;;
29414;SDS011;20303;48.302;11.914;2023-08-21T08:46:31;6.90;;;6.30;;
29414;SDS011;20303;48.302;11.914;2023-08-21T08:56:32;6.22;;;5.72;;
29414;SDS011;20303;48.302;11.914;2023-08-21T09:06:33;6.22;;;5.72;;
29414;SDS011;20303;48.302;11.914;2023-08-21T09:16:34;6.07;;;5.57;;
29414;SDS011;20303;48.302;11.914;2023-08-21T09:26:35;5.70;;;5.20;;
29414;SDS011;20303;48.302;11.914;2023-08-21T09:36:38;5.40;;;5.00;;
29414;SDS011;20303;48.302;11.914;2023-08-21T09:46:40;5.18;;;4.78;;
29414;SDS011;20303;48.302;11.914;2023-08-21T09:56:41;6.05;;;5.55;;
29414;SDS011;20303;48.302;11.914;2023-08-21T10:06:42;5.60;;;5.13;;
29414;SDS011;20303;48.302;11.914;2023-08-21T10:16:46;5.60;;;5.10;;
29414;SDS011;20303;48.302;11.914;2023-08-21T10:26:47;5.32;;;4.85;;
29414;SDS011;20303;48.302;11.914;2023-08-21T10:37:02;6.28;;;5.68;;
29414;SDS011;20303;48.302;11.914;2023-08-21T10:47:20;6.07;;;5.57;;
29414;SDS011;20303;48.302;11.914;2023-08-21T10:57:31;6.07;;;5.57;;
29414;SDS011;20303;48.302;11.914;2023-08-21T11:07:36;5.97;;;5.47;;
29414;SDS011;20303;48.302;11.914;2023-08-21T11:17:39;5.68;;;5.18;;
29414;SDS011;20303;48.302;11.914;2023-08-21T11:27:40;5.32;;;4.93;;
29414;SDS011;20303;48.302;11.914;2023-08-21T11:37:44;5.97;;;5.47;;
29414;SDS011;20303;48.302;11.914;2023-08-21T11:47:46;5.88;;;5.38;;
29414;SDS011;20303;48.302;11.914;2023-08-21T11:57:50;5.45;;;5.05;;
29414;SDS011;20303;48.302;11.914;2023-08-21T12:07:51;5.40;;;4.88;;
29414;SDS011;20303;48.302;11.914;2023-08-21T12:17:53;5.78;;;5.28;;
29414;SDS011;20303;48.302;11.914;2023-08-21T12:27:54;5.20;;;4.80;;
29414;SDS011;20303;48.302;11.914;2023-08-21T12:37:56;5.10;;;4.70;;
29414;SDS011;20303;48.302;11.914;2023-08-21T12:47:58;5.00;;;4.60;;
29414;SDS011;20303;48.302;11.914;2023-08-21T12:57:59;5.00;;;4.60;;
29414;SDS011;20303;48.302;11.914;2023-08-21T13:08:00;5.18;;;4.78;;
29414;SDS011;20303;48.302;11.914;2023-08-21T13:18:01;5.25;;;4.75;;
29414;SDS011;20303;48.302;11.914;2023-08-21T13:28:02;5.60;;;5.10;;
29414;SDS011;20303;48.302;11.914;2023-08-21T13:38:04;5.45;;;4.95;;
29414;SDS011;20303;48.302;11.914;2023-08-21T13:48:05;5.20;;;4.80;;
29414;SDS011;20303;48.302;11.914;2023-08-21T13:58:07;4.85;;;4.45;;
29414;SDS011;20303;48.302;11.914;2023-08-21T14:08:08;4.28;;;3.92;;
29414;SDS011;20303;48.302;11.914;2023-08-21T14:18:09;5.07;;;4.68;;
29414;SDS011;20303;48.302;11.914;2023-08-21T14:28:10;4.28;;;3.88;;
29414;SDS011;20303;48.302;11.914;2023-08-21T14:38:11;4.65;;;4.25;;
29414;SDS011;20303;48.302;11.914;2023-08-21T14:48:12;4.70;;;4.30;;
29414;SDS011;20303;48.302;11.914;2023-08-21T14:58:13;4.85;;;4.43;;
29414;SDS011;20303;48.302;11.914;2023-08-21T15:08:14;5.53;;;4.40;;
29414;SDS011;20303;48.302;11.914;2023-08-21T15:18:15;4.38;;;3.97;;
29414;SDS011;20303;48.302;11.914;2023-08-21T15:28:16;4.80;;;4.40;;
29414;SDS011;20303;48.302;11.914;2023-08-21T15:38:17;4.80;;;4.40;;
29414;SDS011;20303;48.302;11.914;2023-08-21T15:48:18;4.50;;;4.10;;
29414;SDS011;20303;48.302;11.914;2023-08-21T15:58:19;4.53;;;4.13;;
29414;SDS011;20303;48.302;11.914;2023-08-21T16:08:20;4.78;;;4.38;;
29414;SDS011;20303;48.302;11.914;2023-08-21T16:18:21;4.55;;;4.20;;
29414;SDS011;20303;48.302;11.914;2023-08-21T16:28:22;4.82;;;4.43;;
29414;SDS011;20303;48.302;11.914;2023-08-21T16:38:23;4.45;;;4.05;;
29414;SDS011;20303;48.302;11.914;2023-08-21T16:48:24;4.63;;;4.13;;
29414;SDS011;20303;48.302;11.914;2023-08-21T16:58:26;4.90;;;4.38;;
29414;SDS011;20303;48.302;11.914;2023-08-21T17:08:27;4.65;;;4.25;;
29414;SDS011;20303;48.302;11.914;2023-08-21T17:18:28;5.05;;;4.60;;
29414;SDS011;20303;48.302;11.914;2023-08-21T17:28:29;4.80;;;4.40;;
29414;SDS011;20303;48.302;11.914;2023-08-21T17:38:30;5.15;;;4.60;;
29414;SDS011;20303;48.302;11.914;2023-08-21T17:48:31;5.18;;;4.70;;
29414;SDS011;20303;48.302;11.914;2023-08-21T17:58:32;5.00;;;4.60;;
29414;SDS011;20303;48.302;11.914;2023-08-21T18:08:33;5.10;;;4.60;;
29414;SDS011;20303;48.302;11.914;2023-08-21T18:18:36;4.97;;;4.47;;
29414;SDS011;20303;48.302;11.914;2023-08-21T18:28:40;4.80;;;4.40;;
29414;SDS011;20303;48.302;11.914;2023-08-21T18:38:41;4.72;;;4.32;;
29414;SDS011;20303;48.302;11.914;2023-08-21T18:48:42;5.00;;;4.60;;
29414;SDS011;20303;48.302;11.914;2023-08-21T18:58:43;4.55;;;4.15;;
29414;SDS011;20303;48.302;11.914;2023-08-21T19:08:44;4.40;;;4.00;;
29414;SDS011;20303;48.302;11.914;2023-08-21T19:18:46;4.60;;;4.20;;
29414;SDS011;20303;48.302;11.914;2023-08-21T19:28:47;4.25;;;3.85;;
29414;SDS011;20303;48.302;11.914;2023-08-21T19:38:48;4.50;;;4.10;;
29414;SDS011;20303;48.302;11.914;2023-08-21T19:48:50;4.25;;;3.95;;
29414;SDS011;20303;48.302;11.914;2023-08-21T19:58:51;4.50;;;4.10;;
29414;SDS011;20303;48.302;11.914;2023-08-21T20:08:52;4.10;;;3.80;;
29414;SDS011;20303;48.302;11.914;2023-08-21T20:18:54;4.22;;;3.83;;
29414;SDS011;20303;48.302;11.914;2023-08-21T20:28:57;4.25;;;3.95;;
29414;SDS011;20303;48.302;11.914;2023-08-21T20:38:58;3.90;;;3.60;;
29414;SDS011;20303;48.302;11.914;2023-08-21T20:48:59;4.03;;;3.72;;
29414;SDS011;20303;48.302;11.914;2023-08-21T20:59:00;4.05;;;3.75;;
29414;SDS011;20303;48.302;11.914;2023-08-21T21:09:01;4.20;;;3.90;;
29414;SDS011;20303;48.302;11.914;2023-08-21T21:19:04;4.30;;;4.00;;
29414;SDS011;20303;48.302;11.914;2023-08-21T21:29:05;4.57;;;4.18;;
29414;SDS011;20303;48.302;11.914;2023-08-21T21:39:07;4.28;;;3.97;;
29414;SDS011;20303;48.302;11.914;2023-08-21T21:49:08;4.50;;;4.20;;
29414;SDS011;20303;48.302;11.914;2023-08-21T21:59:09;4.90;;;4.50;;
29414;SDS011;20303;48.302;11.914;2023-08-21T22:09:10;4.55;;;4.25;;
29414;SDS011;20303;48.302;11.914;2023-08-21T22:19:11;4.75;;;4.35;;
29414;SDS011;20303;48.302;11.914;2023-08-21T22:29:12;5.28;;;4.88;;
29414;SDS011;20303;48.302;11.914;2023-08-21T22:39:13;5.30;;;4.80;;
29414;SDS011;20303;48.302;11.914;2023-08-21T22:49:14;5.32;;;4.82;;
29414;SDS011;20303;48.302;11.914;2023-08-21T22:59:15;5.82;;;5.32;;
29414;SDS011;20303;48.302;11.914;2023-08-21T23:09:16;5.93;;;5.43;;
29414;SDS011;20303;48.302;11.914;2023-08-21T23:19:17;6.32;;;5.70;;
29414;SDS011;20303;48.302;11.914;2023-08-21T23:29:18;5.65;;;5.15;;
29414;SDS011;20303;48.302;11.914;2023-08-21T23:39:19;6.50;;;5.78;;
29414;SDS011;20303;48.302;11.914;2023-08-21T23:49:20;5.80;;;5.30;;
29414;SDS011;20303;48.302;11.914;2023-08-21T23:59:21;6.32;;;5.82;;
